createdAt,value
2022-10-17T00:00:16.160Z,16.10
2022-10-17T00:01:48.910Z,16.10
2022-10-17T00:03:21.776Z,16.10
2022-10-17T00:04:54.487Z,16.10
2022-10-17T00:06:27.205Z,16.00
2022-10-17T00:08:00.052Z,16.10
2022-10-17T00:09:32.777Z,16.00
2022-10-17T00:11:07.802Z,16.00
2022-10-17T00:12:40.580Z,16.00
2022-10-17T00:14:14.679Z,15.90
2022-10-17T00:15:46.423Z,15.90
2022-10-17T00:17:19.137Z,15.90
2022-10-17T00:18:50.900Z,15.90
2022-10-17T00:20:23.595Z,15.90
2022-10-17T00:21:56.349Z,15.90
2022-10-17T00:23:30.243Z,16.00
2022-10-17T00:25:02.098Z,15.90
2022-10-17T00:26:34.844Z,15.90
2022-10-17T00:28:09.192Z,16.00
2022-10-17T00:29:43.272Z,16.00
2022-10-17T00:31:16.306Z,16.00
2022-10-17T00:32:49.046Z,16.00
2022-10-17T00:34:21.753Z,16.10
2022-10-17T00:36:03.232Z,16.10
2022-10-17T00:37:36.282Z,16.10
2022-10-17T00:39:10.235Z,16.10
2022-10-17T00:40:41.978Z,16.10
2022-10-17T00:42:14.709Z,16.10
2022-10-17T00:43:55.666Z,16.10
2022-10-17T00:45:31.748Z,16.10
2022-10-17T00:47:06.033Z,16.10
2022-10-17T00:48:38.739Z,16.00
2022-10-17T00:50:11.817Z,16.00
2022-10-17T00:51:47.676Z,16.00
2022-10-17T00:53:20.568Z,16.00
2022-10-17T00:54:56.265Z,16.00
2022-10-17T00:56:29.083Z,16.00
2022-10-17T00:58:04.830Z,16.10
2022-10-17T00:59:41.075Z,15.90
2022-10-17T01:01:15.183Z,16.00
2022-10-17T01:02:48.592Z,16.00
2022-10-17T01:04:21.813Z,16.00
2022-10-17T01:05:54.558Z,16.00
2022-10-17T01:07:29.290Z,16.10
2022-10-17T01:09:04.869Z,16.10
2022-10-17T01:10:46.507Z,16.20
2022-10-17T01:12:23.107Z,16.20
2022-10-17T01:14:01.252Z,16.20
2022-10-17T01:15:53.437Z,16.10
2022-10-17T01:17:35.891Z,16.10
2022-10-17T01:19:28.890Z,16.10
2022-10-17T01:21:27.728Z,16.10
2022-10-17T01:23:16.285Z,16.10
2022-10-17T01:25:20.649Z,16.10
2022-10-17T01:27:26.957Z,16.10
2022-10-17T01:29:18.768Z,16.10
2022-10-17T01:31:00.498Z,16.10
2022-10-17T01:32:36.093Z,16.10
2022-10-17T01:34:15.360Z,16.00
2022-10-17T01:35:53.844Z,16.10
2022-10-17T01:37:31.335Z,16.00
2022-10-17T01:39:14.321Z,16.00
2022-10-17T01:40:51.780Z,16.00
2022-10-17T01:42:28.303Z,16.00
2022-10-17T01:44:08.756Z,16.00
2022-10-17T01:45:46.350Z,16.00
2022-10-17T01:47:22.756Z,16.10
2022-10-17T01:48:57.248Z,16.00
2022-10-17T01:50:34.484Z,16.00
2022-10-17T01:52:11.004Z,16.00
2022-10-17T01:53:49.784Z,16.10
2022-10-17T01:55:26.820Z,16.00
2022-10-17T01:57:02.482Z,16.00
2022-10-17T01:58:40.687Z,16.00
2022-10-17T02:00:20.191Z,16.00
2022-10-17T02:01:56.411Z,16.00
2022-10-17T02:03:32.310Z,16.10
2022-10-17T02:05:06.182Z,16.00
2022-10-17T02:06:38.212Z,16.00
2022-10-17T02:08:11.414Z,16.00
2022-10-17T02:09:44.180Z,16.00
2022-10-17T02:11:19.321Z,16.00
2022-10-17T02:12:59.182Z,16.00
2022-10-17T02:14:42.322Z,16.00
2022-10-17T02:16:26.385Z,16.00
2022-10-17T02:18:10.292Z,16.00
2022-10-17T02:20:00.172Z,16.00
2022-10-17T02:21:41.888Z,16.00
2022-10-17T02:23:21.934Z,16.00
2022-10-17T02:25:01.300Z,16.00
2022-10-17T02:26:39.187Z,16.00
2022-10-17T02:28:21.924Z,15.90
2022-10-17T02:29:58.299Z,16.00
2022-10-17T02:31:35.041Z,15.90
2022-10-17T02:33:11.565Z,15.90
2022-10-17T02:34:48.533Z,16.00
2022-10-17T02:36:24.279Z,15.90
2022-10-17T02:37:58.120Z,16.00
2022-10-17T02:39:32.645Z,16.00
2022-10-17T02:41:07.129Z,15.90
2022-10-17T02:42:42.175Z,15.90
2022-10-17T02:44:16.106Z,15.90
2022-10-17T02:45:49.704Z,15.90
2022-10-17T02:47:28.343Z,16.00
2022-10-17T02:49:02.821Z,15.90
2022-10-17T02:50:44.681Z,15.90
2022-10-17T02:52:22.287Z,15.90
2022-10-17T02:54:02.352Z,15.80
2022-10-17T02:55:41.828Z,15.80
2022-10-17T02:57:20.147Z,15.80
2022-10-17T02:58:56.295Z,15.80
2022-10-17T03:00:30.871Z,15.80
2022-10-17T03:02:04.653Z,15.80
2022-10-17T03:03:37.365Z,15.70
2022-10-17T03:05:11.060Z,15.70
2022-10-17T03:06:47.364Z,15.80
2022-10-17T03:08:19.557Z,15.80
2022-10-17T03:09:52.281Z,15.80
2022-10-17T03:11:25.010Z,15.80
2022-10-17T03:12:57.714Z,15.80
2022-10-17T03:14:30.409Z,15.80
2022-10-17T03:16:02.172Z,15.80
2022-10-17T03:17:34.948Z,15.80
2022-10-17T03:19:07.786Z,15.90
2022-10-17T03:20:40.537Z,15.80
2022-10-17T03:22:14.600Z,15.90
2022-10-17T03:23:46.430Z,15.90
2022-10-17T03:25:19.146Z,15.80
2022-10-17T03:26:51.865Z,15.90
2022-10-17T03:28:24.705Z,15.90
2022-10-17T03:29:57.454Z,15.80
2022-10-17T03:31:30.177Z,15.80
2022-10-17T03:33:02.892Z,15.80
2022-10-17T03:34:35.599Z,15.90
2022-10-17T03:36:09.314Z,15.80
2022-10-17T03:37:43.385Z,15.80
2022-10-17T03:39:16.102Z,15.90
2022-10-17T03:40:55.030Z,15.80
2022-10-17T03:42:27.745Z,15.80
2022-10-17T03:44:00.463Z,15.80
2022-10-17T03:45:33.326Z,15.70
2022-10-17T03:47:06.489Z,15.70
2022-10-17T03:48:39.964Z,15.70
2022-10-17T03:50:12.714Z,15.70
2022-10-17T03:51:45.436Z,15.70
2022-10-17T03:53:19.539Z,15.70
2022-10-17T03:54:52.534Z,15.70
2022-10-17T03:56:26.440Z,15.70
2022-10-17T03:57:59.245Z,15.70
2022-10-17T03:59:32.073Z,15.70
2022-10-17T04:01:05.926Z,15.60
2022-10-17T04:02:38.680Z,15.60
2022-10-17T04:04:11.699Z,15.60
2022-10-17T04:05:44.398Z,15.60
2022-10-17T04:07:17.167Z,15.60
2022-10-17T04:08:51.574Z,15.50
2022-10-17T04:10:24.279Z,15.50
2022-10-17T04:11:56.977Z,15.50
2022-10-17T04:13:30.719Z,15.50
2022-10-17T04:15:03.569Z,15.50
2022-10-17T04:16:36.321Z,15.50
2022-10-17T04:18:09.025Z,15.50
2022-10-17T04:19:41.716Z,15.50
2022-10-17T04:21:15.047Z,15.50
2022-10-17T04:22:47.747Z,15.40
2022-10-17T04:24:21.759Z,15.50
2022-10-17T04:25:57.154Z,15.50
2022-10-17T04:27:29.877Z,15.50
2022-10-17T04:29:02.581Z,15.50
2022-10-17T04:30:35.329Z,15.50
2022-10-17T04:32:08.098Z,15.40
2022-10-17T04:33:41.438Z,15.40
2022-10-17T04:35:14.161Z,15.40
2022-10-17T04:36:47.297Z,15.40
2022-10-17T04:38:19.082Z,15.50
2022-10-17T04:39:53.152Z,15.40
2022-10-17T04:41:25.888Z,15.50
2022-10-17T04:42:58.638Z,15.50
2022-10-17T04:44:33.414Z,15.50
2022-10-17T04:46:08.474Z,15.50
2022-10-17T04:47:41.271Z,15.40
2022-10-17T04:49:14.002Z,15.40
2022-10-17T04:50:54.907Z,15.40
2022-10-17T04:52:28.132Z,15.40
2022-10-17T04:54:00.097Z,15.40
2022-10-17T04:55:38.672Z,15.40
2022-10-17T04:57:12.248Z,15.40
2022-10-17T04:58:46.102Z,15.40
2022-10-17T05:00:18.931Z,15.40
2022-10-17T05:01:51.781Z,15.40
2022-10-17T05:03:24.609Z,15.40
2022-10-17T05:04:57.330Z,15.40
2022-10-17T05:06:30.176Z,15.40
2022-10-17T05:08:01.937Z,15.40
2022-10-17T05:09:34.663Z,15.40
2022-10-17T05:11:18.246Z,15.50
2022-10-17T05:12:51.519Z,15.40
2022-10-17T05:14:24.235Z,15.40
2022-10-17T05:16:00.027Z,15.50
2022-10-17T05:17:32.756Z,15.50
2022-10-17T05:19:05.468Z,15.40
2022-10-17T05:20:38.201Z,15.50
2022-10-17T05:22:10.982Z,15.50
2022-10-17T05:23:43.692Z,15.50
2022-10-17T05:25:16.496Z,15.50
2022-10-17T05:26:52.435Z,15.50
2022-10-17T05:28:25.475Z,15.50
2022-10-17T05:29:58.170Z,15.50
2022-10-17T05:31:31.962Z,15.40
2022-10-17T05:33:04.679Z,15.40
2022-10-17T05:34:37.406Z,15.40
2022-10-17T05:36:10.552Z,15.40
2022-10-17T05:37:43.286Z,15.40
2022-10-17T05:39:19.497Z,15.40
2022-10-17T05:40:52.229Z,15.40
2022-10-17T05:42:26.616Z,15.40
2022-10-17T05:44:01.798Z,15.40
2022-10-17T05:45:37.748Z,15.50
2022-10-17T05:47:10.793Z,15.40
2022-10-17T05:48:43.497Z,15.40
2022-10-17T05:50:16.343Z,15.40
2022-10-17T05:51:49.078Z,15.40
2022-10-17T05:53:21.822Z,15.40
2022-10-17T05:54:54.520Z,15.40
2022-10-17T05:56:27.246Z,15.40
2022-10-17T05:58:02.187Z,15.40
2022-10-17T05:59:34.914Z,15.40
2022-10-17T06:01:10.665Z,15.40
2022-10-17T06:02:46.790Z,15.40
2022-10-17T06:04:19.537Z,15.40
2022-10-17T06:05:52.384Z,15.40
2022-10-17T06:07:25.123Z,15.40
2022-10-17T06:08:57.909Z,15.40
2022-10-17T06:10:30.628Z,15.40
2022-10-17T06:12:03.375Z,15.40
2022-10-17T06:13:37.477Z,15.40
2022-10-17T06:15:11.078Z,15.40
2022-10-17T06:16:44.330Z,15.40
2022-10-17T06:18:17.061Z,15.40
2022-10-17T06:19:49.890Z,15.40
2022-10-17T06:21:25.682Z,15.50
2022-10-17T06:22:58.491Z,15.50
2022-10-17T06:24:31.326Z,15.50
2022-10-17T06:26:06.661Z,15.50
2022-10-17T06:27:39.622Z,15.50
2022-10-17T06:29:14.383Z,15.50
2022-10-17T06:30:47.117Z,15.50
2022-10-17T06:32:19.870Z,15.50
2022-10-17T06:33:52.583Z,15.50
2022-10-17T06:35:25.340Z,15.50
2022-10-17T06:36:58.071Z,15.60
2022-10-17T06:38:31.195Z,15.60
2022-10-17T06:40:04.049Z,15.60
2022-10-17T06:41:36.770Z,15.60
2022-10-17T06:43:09.486Z,15.60
2022-10-17T06:44:43.605Z,15.50
2022-10-17T06:46:18.183Z,15.60
2022-10-17T06:47:50.961Z,15.60
2022-10-17T06:49:23.744Z,15.50
2022-10-17T06:51:00.502Z,15.60
2022-10-17T06:52:33.407Z,15.60
2022-10-17T06:54:06.130Z,15.60
2022-10-17T06:55:39.046Z,15.70
2022-10-17T06:57:11.855Z,15.70
2022-10-17T06:58:44.574Z,15.70
2022-10-17T07:00:18.889Z,15.70
2022-10-17T07:01:53.090Z,15.80
2022-10-17T07:03:25.817Z,15.80
2022-10-17T07:04:58.547Z,15.80
2022-10-17T07:06:31.313Z,15.80
2022-10-17T07:08:05.839Z,15.90
2022-10-17T07:09:38.717Z,15.90
2022-10-17T07:11:13.362Z,15.90
2022-10-17T07:12:46.154Z,16.00
2022-10-17T07:14:18.922Z,16.20
2022-10-17T07:15:53.149Z,16.30
2022-10-17T07:17:25.927Z,16.40
2022-10-17T07:18:58.668Z,16.60
2022-10-17T07:20:31.602Z,16.80
2022-10-17T07:22:04.310Z,17.00
2022-10-17T07:23:38.482Z,17.30
2022-10-17T07:25:11.207Z,17.50
2022-10-17T07:26:43.944Z,17.70
2022-10-17T07:28:16.991Z,18.00
2022-10-17T07:29:49.717Z,18.20
2022-10-17T07:31:24.701Z,18.30
2022-10-17T07:32:57.444Z,18.50
2022-10-17T07:34:31.366Z,18.70
2022-10-17T07:36:05.821Z,18.90
2022-10-17T07:37:38.963Z,19.10
2022-10-17T07:39:12.206Z,19.30
2022-10-17T07:40:44.965Z,19.50
2022-10-17T07:42:17.747Z,19.70
2022-10-17T07:43:50.470Z,19.90
2022-10-17T07:45:23.721Z,20.10
2022-10-17T07:46:58.549Z,20.20
2022-10-17T07:48:31.445Z,20.30
2022-10-17T07:50:04.445Z,20.40
2022-10-17T07:51:37.239Z,20.50
2022-10-17T07:53:10.181Z,20.50
2022-10-17T07:54:43.488Z,20.50
2022-10-17T07:56:16.259Z,20.50
2022-10-17T07:57:49.035Z,20.50
2022-10-17T07:59:21.724Z,20.50
2022-10-17T08:00:54.547Z,20.40
2022-10-17T08:02:29.578Z,20.40
2022-10-17T08:04:02.609Z,20.30
2022-10-17T08:05:35.698Z,20.30
2022-10-17T08:07:19.956Z,20.30
2022-10-17T08:08:53.589Z,20.40
2022-10-17T08:10:29.260Z,20.40
2022-10-17T08:12:01.982Z,20.50
2022-10-17T08:13:35.236Z,20.50
2022-10-17T08:15:09.807Z,20.60
2022-10-17T08:16:42.549Z,20.60
2022-10-17T08:18:17.604Z,20.60
2022-10-17T08:19:50.307Z,20.60
2022-10-17T08:21:23.311Z,20.60
2022-10-17T08:22:56.634Z,20.70
2022-10-17T08:24:29.469Z,20.60
2022-10-17T08:26:03.708Z,20.60
2022-10-17T08:27:36.457Z,20.60
2022-10-17T08:29:14.135Z,20.60
2022-10-17T08:30:46.894Z,20.60
2022-10-17T08:32:20.018Z,20.60
2022-10-17T08:33:54.096Z,20.50
2022-10-17T08:35:26.900Z,20.50
2022-10-17T08:36:59.717Z,20.40
2022-10-17T08:38:35.565Z,20.40
2022-10-17T08:40:15.625Z,20.30
2022-10-17T08:42:04.011Z,20.40
2022-10-17T08:43:48.901Z,20.40
2022-10-17T08:45:28.803Z,20.40
2022-10-17T08:47:07.847Z,20.40
2022-10-17T08:48:45.507Z,20.50
2022-10-17T08:50:28.973Z,20.40
2022-10-17T08:52:07.500Z,20.40
2022-10-17T08:53:44.305Z,20.40
2022-10-17T08:56:58.647Z,20.40
2022-10-17T08:58:34.997Z,20.50
2022-10-17T09:00:16.202Z,20.50
2022-10-17T09:01:51.968Z,20.50
2022-10-17T09:03:44.906Z,20.60
2022-10-17T09:05:33.163Z,20.70
2022-10-17T09:07:11.968Z,20.80
2022-10-17T09:08:54.227Z,20.70
2022-10-17T09:10:38.521Z,20.70
2022-10-17T09:12:19.056Z,20.60
2022-10-17T09:14:03.168Z,20.60
2022-10-17T09:15:46.361Z,20.60
2022-10-17T09:17:33.064Z,20.70
2022-10-17T09:19:12.648Z,20.80
2022-10-17T09:20:52.451Z,21.00
2022-10-17T09:22:28.998Z,21.10
2022-10-17T09:24:09.503Z,21.20
2022-10-17T09:25:45.049Z,21.30
2022-10-17T09:27:25.515Z,21.40
2022-10-17T09:29:01.187Z,21.50
2022-10-17T09:30:46.682Z,21.60
2022-10-17T09:32:23.699Z,21.70
2022-10-17T09:33:58.748Z,21.80
2022-10-17T09:35:31.516Z,21.80
2022-10-17T09:37:13.733Z,21.80
2022-10-17T09:38:49.519Z,21.90
2022-10-17T09:40:25.992Z,21.90
2022-10-17T09:42:00.711Z,22.00
2022-10-17T09:43:33.432Z,22.20
2022-10-17T09:45:19.214Z,22.20
2022-10-17T09:47:03.767Z,22.40
2022-10-17T09:48:40.692Z,22.60
2022-10-17T09:50:19.794Z,22.70
2022-10-17T09:51:52.733Z,22.80
2022-10-17T09:53:30.451Z,22.80
2022-10-17T09:55:08.211Z,22.90
2022-10-17T09:56:59.514Z,23.00
2022-10-17T09:58:42.669Z,23.10
2022-10-17T10:00:22.808Z,23.10
2022-10-17T10:02:09.285Z,23.20
2022-10-17T10:03:41.989Z,23.20
2022-10-17T10:05:18.870Z,23.30
2022-10-17T10:07:03.861Z,23.40
2022-10-17T10:08:49.814Z,23.50
2022-10-17T10:10:28.316Z,23.60
2022-10-17T10:12:04.796Z,23.60
2022-10-17T10:13:37.518Z,23.70
2022-10-17T10:15:31.977Z,23.80
2022-10-17T10:17:06.716Z,23.80
2022-10-17T10:18:39.431Z,23.80
2022-10-17T10:20:32.584Z,23.80
2022-10-17T10:22:06.819Z,23.80
2022-10-17T10:23:42.449Z,23.90
2022-10-17T10:25:17.375Z,23.90
2022-10-17T10:26:53.368Z,24.00
2022-10-17T10:28:30.480Z,24.10
2022-10-17T10:30:04.489Z,24.20
2022-10-17T10:31:40.399Z,24.30
2022-10-17T10:33:13.552Z,24.40
2022-10-17T10:34:51.113Z,24.60
2022-10-17T10:36:24.470Z,24.70
2022-10-17T10:37:59.361Z,24.80
2022-10-17T10:39:42.787Z,25.00
2022-10-17T10:41:15.532Z,25.10
2022-10-17T10:42:51.013Z,25.20
2022-10-17T10:44:26.993Z,25.40
2022-10-17T10:46:00.625Z,25.50
2022-10-17T10:47:34.037Z,25.60
2022-10-17T10:49:30.648Z,25.70
2022-10-17T10:51:08.753Z,25.80
2022-10-17T10:52:46.616Z,25.90
2022-10-17T10:54:23.268Z,26.00
2022-10-17T10:56:00.687Z,26.00
2022-10-17T10:57:35.926Z,26.10
2022-10-17T10:59:18.854Z,26.10
2022-10-17T11:00:52.268Z,26.20
2022-10-17T11:02:31.176Z,26.10
2022-10-17T11:04:14.352Z,26.20
2022-10-17T11:05:52.084Z,26.20
2022-10-17T11:07:31.150Z,26.30
2022-10-17T11:09:24.450Z,26.40
2022-10-17T11:11:17.933Z,26.50
2022-10-17T11:12:57.217Z,26.50
2022-10-17T11:14:46.238Z,26.40
2022-10-17T11:16:26.982Z,26.40
2022-10-17T11:18:03.481Z,26.40
2022-10-17T11:19:43.831Z,26.40
2022-10-17T11:21:19.895Z,26.30
2022-10-17T11:22:58.464Z,26.30
2022-10-17T11:24:37.636Z,26.10
2022-10-17T11:26:17.383Z,26.10
2022-10-17T11:27:50.403Z,26.10
2022-10-17T11:29:29.148Z,26.00
2022-10-17T11:31:07.242Z,26.10
2022-10-17T11:32:45.807Z,26.10
2022-10-17T11:34:24.376Z,26.00
2022-10-17T11:36:03.426Z,26.00
2022-10-17T11:37:41.457Z,25.90
2022-10-17T11:39:19.336Z,25.90
2022-10-17T11:40:54.289Z,25.90
2022-10-17T11:42:32.443Z,25.90
2022-10-17T11:44:15.789Z,25.90
2022-10-17T11:45:52.889Z,25.90
2022-10-17T11:47:35.469Z,25.90
2022-10-17T11:49:19.050Z,25.90
2022-10-17T11:52:58.551Z,25.80
2022-10-17T11:54:37.641Z,25.80
2022-10-17T11:56:12.973Z,25.70
2022-10-17T11:58:00.128Z,25.70
2022-10-17T11:59:57.944Z,25.70
2022-10-17T12:01:38.264Z,25.70
2022-10-17T12:03:26.762Z,25.70
2022-10-17T12:05:06.837Z,25.70
2022-10-17T12:06:49.880Z,25.70
2022-10-17T12:08:31.255Z,25.70
2022-10-17T12:10:18.126Z,25.70
2022-10-17T12:11:54.745Z,25.60
2022-10-17T12:13:54.512Z,25.60
2022-10-17T12:15:32.058Z,25.60
2022-10-17T12:17:06.726Z,25.60
2022-10-17T12:18:39.464Z,25.60
2022-10-17T12:20:36.217Z,25.60
2022-10-17T12:22:26.706Z,25.50
2022-10-17T12:23:59.505Z,25.50
2022-10-17T12:25:34.340Z,25.60
2022-10-17T12:27:24.342Z,25.50
2022-10-17T12:28:58.652Z,25.40
2022-10-17T12:30:31.498Z,25.40
2022-10-17T12:32:12.267Z,25.40
2022-10-17T12:33:50.804Z,25.40
2022-10-17T12:35:25.554Z,25.30
2022-10-17T12:36:58.325Z,25.30
2022-10-17T12:38:31.052Z,25.20
2022-10-17T12:40:04.052Z,25.20
2022-10-17T12:41:55.370Z,25.30
2022-10-17T12:43:52.582Z,25.20
2022-10-17T12:45:54.110Z,25.10
2022-10-17T12:47:39.120Z,25.10
2022-10-17T12:49:36.324Z,25.10
2022-10-17T12:53:08.554Z,25.10
2022-10-17T12:54:47.771Z,25.10
2022-10-17T12:56:36.454Z,25.00
2022-10-17T12:58:16.488Z,25.00
2022-10-17T12:59:50.037Z,25.00
2022-10-17T13:01:29.389Z,24.90
2022-10-17T13:03:11.655Z,24.90
2022-10-17T13:04:44.460Z,24.90
2022-10-17T13:06:21.638Z,24.90
2022-10-17T13:07:55.778Z,24.90
2022-10-17T13:09:31.096Z,24.90
2022-10-17T13:11:04.886Z,24.80
2022-10-17T13:12:41.347Z,24.90
2022-10-17T13:14:17.321Z,24.80
2022-10-17T13:15:52.190Z,24.80
2022-10-17T13:17:29.298Z,24.80
2022-10-17T13:19:04.240Z,24.70
2022-10-17T13:20:36.952Z,24.70
2022-10-17T13:22:16.286Z,24.70
2022-10-17T13:23:50.641Z,24.70
2022-10-17T13:25:24.399Z,24.70
2022-10-17T13:26:57.605Z,24.60
2022-10-17T13:28:30.369Z,24.60
2022-10-17T13:30:21.420Z,24.60
2022-10-17T13:31:56.754Z,24.60
2022-10-17T13:33:35.237Z,24.60
2022-10-17T13:35:10.797Z,24.60
2022-10-17T13:36:48.602Z,24.60
2022-10-17T13:38:26.932Z,24.60
2022-10-17T13:40:07.043Z,24.60
2022-10-17T13:41:50.948Z,24.50
2022-10-17T13:43:25.089Z,24.50
2022-10-17T13:44:59.001Z,24.40
2022-10-17T13:46:39.009Z,24.40
2022-10-17T13:48:20.708Z,24.40
2022-10-17T13:49:55.958Z,24.40
2022-10-17T13:51:28.915Z,24.40
2022-10-17T13:53:11.488Z,24.40
2022-10-17T13:54:46.130Z,24.40
2022-10-17T13:56:29.679Z,24.30
2022-10-17T13:58:17.503Z,24.30
2022-10-17T13:59:52.553Z,24.30
2022-10-17T14:01:26.922Z,24.30
2022-10-17T14:02:59.681Z,24.30
2022-10-17T14:04:44.741Z,24.20
2022-10-17T14:06:27.840Z,24.20
2022-10-17T14:08:12.042Z,24.20
2022-10-17T14:09:47.839Z,24.20
2022-10-17T14:11:28.345Z,24.20
2022-10-17T14:13:01.834Z,24.20
2022-10-17T14:14:57.965Z,24.20
2022-10-17T14:16:34.709Z,24.10
2022-10-17T14:18:11.641Z,24.10
2022-10-17T14:19:51.461Z,24.00
2022-10-17T14:21:42.977Z,24.00
2022-10-17T14:23:36.505Z,24.00
2022-10-17T14:25:27.803Z,24.00
2022-10-17T14:27:01.275Z,24.00
2022-10-17T14:28:35.213Z,24.00
2022-10-17T14:30:55.184Z,24.00
2022-10-17T14:32:28.865Z,24.00
2022-10-17T14:34:02.803Z,24.00
2022-10-17T14:35:42.071Z,23.90
2022-10-17T14:37:28.581Z,23.90
2022-10-17T14:39:02.353Z,23.90
2022-10-17T14:40:36.039Z,23.90
2022-10-17T14:42:19.268Z,23.90
2022-10-17T14:44:01.561Z,23.90
2022-10-17T14:45:37.770Z,23.80
2022-10-17T14:47:42.375Z,23.80
2022-10-17T14:49:24.091Z,23.80
2022-10-17T14:51:11.347Z,23.80
2022-10-17T14:53:00.403Z,23.80
2022-10-17T14:54:38.131Z,23.80
2022-10-17T14:56:24.958Z,23.80
2022-10-17T14:57:57.713Z,23.80
2022-10-17T14:59:52.946Z,23.70
2022-10-17T15:01:23.152Z,23.70
2022-10-17T15:02:57.168Z,23.80
2022-10-17T15:04:30.117Z,23.80
2022-10-17T15:06:16.311Z,23.80
2022-10-17T15:07:50.595Z,23.80
2022-10-17T15:09:23.794Z,23.80
2022-10-17T15:10:56.503Z,23.80
2022-10-17T15:12:29.510Z,23.80
2022-10-17T15:14:02.409Z,23.80
2022-10-17T15:15:35.649Z,23.80
2022-10-17T15:17:13.568Z,23.80
2022-10-17T15:18:46.357Z,23.80
2022-10-17T15:20:20.193Z,23.80
2022-10-17T15:21:52.910Z,23.80
2022-10-17T15:23:27.030Z,23.80
2022-10-17T15:24:59.999Z,23.80
2022-10-17T15:26:34.797Z,23.80
2022-10-17T15:28:07.926Z,23.80
2022-10-17T15:29:40.848Z,23.80
2022-10-17T15:31:15.221Z,23.80
2022-10-17T15:32:48.137Z,23.70
2022-10-17T15:34:20.872Z,23.70
2022-10-17T15:35:53.649Z,23.70
2022-10-17T15:37:26.929Z,23.70
2022-10-17T15:39:02.880Z,23.70
2022-10-17T15:40:35.594Z,23.70
2022-10-17T15:42:11.566Z,23.60
2022-10-17T15:43:44.496Z,23.60
2022-10-17T15:45:18.996Z,23.60
2022-10-17T15:46:51.745Z,23.60
2022-10-17T15:48:30.150Z,23.50
2022-10-17T15:50:03.325Z,23.50
2022-10-17T15:51:36.118Z,23.50
2022-10-17T15:53:12.440Z,23.40
2022-10-17T15:54:46.562Z,23.40
2022-10-17T15:56:23.728Z,23.30
2022-10-17T15:57:56.521Z,23.30
2022-10-17T15:59:34.880Z,23.30
2022-10-17T16:01:08.296Z,23.20
2022-10-17T16:02:41.067Z,23.10
2022-10-17T16:04:15.475Z,23.10
2022-10-17T16:05:48.392Z,23.10
2022-10-17T16:07:21.577Z,23.00
2022-10-17T16:08:54.325Z,23.00
2022-10-17T16:10:28.733Z,23.00
2022-10-17T16:12:02.012Z,22.90
2022-10-17T16:13:34.849Z,22.90
2022-10-17T16:15:08.793Z,22.90
2022-10-17T16:16:41.857Z,22.90
2022-10-17T16:18:14.739Z,22.80
2022-10-17T16:19:47.460Z,22.80
2022-10-17T16:21:21.420Z,22.80
2022-10-17T16:22:59.639Z,22.80
2022-10-17T16:24:32.599Z,22.80
2022-10-17T16:26:07.101Z,22.80
2022-10-17T16:27:40.301Z,22.70
2022-10-17T16:29:13.037Z,22.70
2022-10-17T16:30:46.177Z,22.70
2022-10-17T16:32:18.944Z,22.60
2022-10-17T16:33:53.516Z,22.60
2022-10-17T16:35:33.092Z,22.50
2022-10-17T16:37:09.528Z,22.50
2022-10-17T16:38:42.280Z,22.40
2022-10-17T16:40:15.310Z,22.40
2022-10-17T16:41:51.639Z,22.40
2022-10-17T16:43:25.283Z,22.40
2022-10-17T16:44:57.997Z,22.40
2022-10-17T16:46:32.040Z,22.40
2022-10-17T16:48:04.953Z,22.30
2022-10-17T16:49:40.394Z,22.30
2022-10-17T16:51:18.058Z,22.30
2022-10-17T16:52:50.837Z,22.30
2022-10-17T16:54:23.567Z,22.20
2022-10-17T16:56:02.727Z,22.20
2022-10-17T16:57:37.061Z,22.20
2022-10-17T16:59:11.733Z,22.30
2022-10-17T17:00:44.465Z,22.20
2022-10-17T17:02:21.167Z,22.20
2022-10-17T17:03:54.981Z,22.20
2022-10-17T17:05:28.224Z,22.10
2022-10-17T17:07:00.946Z,22.10
2022-10-17T17:08:33.908Z,22.10
2022-10-17T17:10:07.497Z,22.10
2022-10-17T17:11:40.286Z,22.10
2022-10-17T17:13:14.318Z,22.10
2022-10-17T17:14:47.040Z,22.00
2022-10-17T17:16:22.096Z,22.00
2022-10-17T17:17:55.769Z,22.00
2022-10-17T17:19:28.039Z,22.00
2022-10-17T17:21:01.343Z,22.00
2022-10-17T17:22:34.276Z,22.00
2022-10-17T17:24:07.216Z,22.00
2022-10-17T17:25:39.999Z,21.90
2022-10-17T17:27:13.610Z,21.90
2022-10-17T17:28:48.590Z,21.90
2022-10-17T17:30:21.340Z,21.90
2022-10-17T17:31:54.248Z,21.90
2022-10-17T17:33:28.254Z,21.90
2022-10-17T17:35:00.962Z,21.80
2022-10-17T17:36:36.309Z,21.80
2022-10-17T17:38:09.032Z,21.80
2022-10-17T17:39:41.745Z,21.80
2022-10-17T17:41:15.565Z,21.80
2022-10-17T17:42:48.357Z,21.70
2022-10-17T17:44:22.487Z,21.70
2022-10-17T17:45:55.252Z,21.70
2022-10-17T17:47:30.166Z,21.60
2022-10-17T17:49:03.166Z,21.60
2022-10-17T17:50:37.981Z,21.50
2022-10-17T17:52:10.736Z,21.50
2022-10-17T17:53:42.663Z,21.50
2022-10-17T17:55:15.483Z,21.40
2022-10-17T17:56:48.185Z,21.30
2022-10-17T17:58:20.918Z,21.30
2022-10-17T17:59:54.985Z,21.20
2022-10-17T18:01:29.479Z,21.20
2022-10-17T18:03:02.789Z,21.20
2022-10-17T18:04:35.783Z,21.10
2022-10-17T18:06:09.429Z,21.20
2022-10-17T18:07:42.160Z,21.10
2022-10-17T18:09:14.932Z,21.10
2022-10-17T18:10:54.345Z,21.20
2022-10-17T18:12:27.133Z,21.10
2022-10-17T18:14:01.606Z,21.10
2022-10-17T18:15:35.716Z,21.10
2022-10-17T18:17:08.604Z,21.10
2022-10-17T18:18:42.819Z,21.10
2022-10-17T18:20:15.539Z,21.10
2022-10-17T18:21:48.743Z,21.10
2022-10-17T18:23:21.619Z,21.10
2022-10-17T18:24:54.423Z,21.10
2022-10-17T18:26:27.161Z,21.10
2022-10-17T18:27:59.887Z,21.10
2022-10-17T18:29:32.730Z,21.10
2022-10-17T18:31:08.300Z,21.10
2022-10-17T18:32:41.502Z,21.10
2022-10-17T18:34:14.189Z,21.00
2022-10-17T18:35:47.061Z,21.10
2022-10-17T18:37:19.786Z,21.00
2022-10-17T18:38:52.617Z,21.00
2022-10-17T18:40:25.324Z,21.00
2022-10-17T18:41:58.414Z,20.90
2022-10-17T18:43:32.840Z,20.90
2022-10-17T18:45:06.467Z,20.90
2022-10-17T18:46:41.602Z,20.80
2022-10-17T18:48:14.323Z,20.80
2022-10-17T18:49:48.130Z,20.80
2022-10-17T18:51:23.700Z,20.80
2022-10-17T18:52:56.422Z,20.80
2022-10-17T18:54:32.059Z,20.80
2022-10-17T18:56:05.016Z,20.80
2022-10-17T18:57:37.737Z,20.80
2022-10-17T18:59:10.545Z,20.80
2022-10-17T19:00:43.274Z,20.80
2022-10-17T19:02:17.374Z,20.70
2022-10-17T19:03:51.702Z,20.70
2022-10-17T19:05:24.434Z,20.70
2022-10-17T19:06:57.189Z,20.70
2022-10-17T19:08:29.417Z,20.70
2022-10-17T19:10:02.258Z,20.60
2022-10-17T19:11:36.502Z,20.60
2022-10-17T19:13:09.406Z,20.60
2022-10-17T19:14:42.193Z,20.50
2022-10-17T19:16:16.508Z,20.50
2022-10-17T19:17:50.633Z,20.50
2022-10-17T19:19:25.932Z,20.40
2022-10-17T19:21:02.611Z,20.40
2022-10-17T19:22:35.344Z,20.40
2022-10-17T19:24:11.941Z,20.40
2022-10-17T19:25:44.674Z,20.30
2022-10-17T19:27:17.490Z,20.30
2022-10-17T19:28:52.122Z,20.30
2022-10-17T19:30:25.036Z,20.30
2022-10-17T19:31:57.795Z,20.30
2022-10-17T19:33:32.481Z,20.30
2022-10-17T19:35:06.321Z,20.30
2022-10-17T19:36:39.506Z,20.30
2022-10-17T19:38:12.236Z,20.40
2022-10-17T19:39:45.027Z,20.40
2022-10-17T19:41:17.960Z,20.40
2022-10-17T19:42:50.686Z,20.40
2022-10-17T19:44:23.618Z,20.40
2022-10-17T19:45:56.189Z,20.30
2022-10-17T19:47:28.906Z,20.40
2022-10-17T19:49:03.446Z,20.40
2022-10-17T19:50:39.127Z,20.40
2022-10-17T19:52:14.113Z,20.30
2022-10-17T19:53:47.394Z,20.30
2022-10-17T19:55:20.137Z,20.30
2022-10-17T19:56:52.833Z,20.30
2022-10-17T19:58:25.934Z,20.30
2022-10-17T19:59:58.654Z,20.30
2022-10-17T20:01:34.969Z,20.30
2022-10-17T20:03:07.683Z,20.30
2022-10-17T20:04:49.718Z,20.30
2022-10-17T20:06:35.672Z,20.40
2022-10-17T20:08:08.628Z,20.40
2022-10-17T20:09:41.388Z,20.40
2022-10-17T20:11:16.465Z,20.40
2022-10-17T20:12:49.417Z,20.40
2022-10-17T20:14:22.271Z,20.40
2022-10-17T20:15:54.389Z,20.30
2022-10-17T20:17:27.452Z,20.40
2022-10-17T20:19:04.775Z,20.30
2022-10-17T20:20:38.840Z,20.30
2022-10-17T20:22:11.537Z,20.30
2022-10-17T20:23:45.520Z,20.30
2022-10-17T20:25:18.601Z,20.30
2022-10-17T20:26:51.396Z,20.30
2022-10-17T20:28:23.171Z,20.30
2022-10-17T20:30:01.446Z,20.30
2022-10-17T20:31:34.193Z,20.30
2022-10-17T20:33:06.880Z,20.30
2022-10-17T20:34:39.768Z,20.20
2022-10-17T20:36:15.057Z,20.20
2022-10-17T20:37:47.774Z,20.20
2022-10-17T20:39:21.807Z,20.20
2022-10-17T20:40:54.564Z,20.20
2022-10-17T20:42:27.523Z,20.20